sensor_id;sensor_type;location;lat;lon;timestamp;temperature;humidity
6146;DHT22;3104;50.348;7.620;2022-08-21T00:01:11;17.60;99.90
6146;DHT22;3104;50.348;7.620;2022-08-21T00:03:38;17.40;99.90
6146;DHT22;3104;50.348;7.620;2022-08-21T00:06:04;17.30;99.90
6146;DHT22;3104;50.348;7.620;2022-08-21T00:08:30;17.30;99.90
6146;DHT22;3104;50.348;7.620;2022-08-21T00:10:55;17.30;99.90
6146;DHT22;3104;50.348;7.620;2022-08-21T00:13:21;17.40;99.90
6146;DHT22;3104;50.348;7.620;2022-08-21T00:15:48;17.30;99.90
6146;DHT22;3104;50.348;7.620;2022-08-21T00:18:14;17.20;99.90
6146;DHT22;3104;50.348;7.620;2022-08-21T00:20:42;17.30;99.90
6146;DHT22;3104;50.348;7.620;2022-08-21T00:23:08;17.40;99.90
6146;DHT22;3104;50.348;7.620;2022-08-21T00:25:34;17.40;99.90
6146;DHT22;3104;50.348;7.620;2022-08-21T00:27:59;17.60;99.90
6146;DHT22;3104;50.348;7.620;2022-08-21T00:30:27;17.80;99.90
6146;DHT22;3104;50.348;7.620;2022-08-21T00:32:55;17.60;99.90
6146;DHT22;3104;50.348;7.620;2022-08-21T00:35:25;17.40;99.90
6146;DHT22;3104;50.348;7.620;2022-08-21T00:37:51;17.10;99.90
6146;DHT22;3104;50.348;7.620;2022-08-21T00:40:21;17.00;99.90
6146;DHT22;3104;50.348;7.620;2022-08-21T00:42:48;16.90;99.90
6146;DHT22;3104;50.348;7.620;2022-08-21T00:45:15;16.80;99.90
6146;DHT22;3104;50.348;7.620;2022-08-21T00:47:41;16.80;99.90
6146;DHT22;3104;50.348;7.620;2022-08-21T00:50:07;16.80;99.90
6146;DHT22;3104;50.348;7.620;2022-08-21T00:52:36;16.80;99.90
6146;DHT22;3104;50.348;7.620;2022-08-21T00:55:05;16.80;99.90
6146;DHT22;3104;50.348;7.620;2022-08-21T00:57:36;16.80;99.90
6146;DHT22;3104;50.348;7.620;2022-08-21T01:00:06;16.90;99.90
6146;DHT22;3104;50.348;7.620;2022-08-21T01:02:31;16.90;99.90
6146;DHT22;3104;50.348;7.620;2022-08-21T01:04:57;16.90;99.90
6146;DHT22;3104;50.348;7.620;2022-08-21T01:07:23;17.00;99.90
6146;DHT22;3104;50.348;7.620;2022-08-21T01:09:50;17.10;99.90
6146;DHT22;3104;50.348;7.620;2022-08-21T01:12:17;17.10;99.90
6146;DHT22;3104;50.348;7.620;2022-08-21T01:14:43;17.10;99.90
6146;DHT22;3104;50.348;7.620;2022-08-21T01:17:11;17.00;99.90
6146;DHT22;3104;50.348;7.620;2022-08-21T01:19:38;16.80;99.90
6146;DHT22;3104;50.348;7.620;2022-08-21T01:22:03;16.70;99.90
6146;DHT22;3104;50.348;7.620;2022-08-21T01:24:29;16.60;99.90
6146;DHT22;3104;50.348;7.620;2022-08-21T01:26:58;16.60;99.90
6146;DHT22;3104;50.348;7.620;2022-08-21T01:29:44;16.50;99.90
6146;DHT22;3104;50.348;7.620;2022-08-21T01:32:16;16.50;99.90
6146;DHT22;3104;50.348;7.620;2022-08-21T01:34:45;16.50;99.90
6146;DHT22;3104;50.348;7.620;2022-08-21T01:37:12;16.50;99.90
6146;DHT22;3104;50.348;7.620;2022-08-21T01:39:38;16.50;99.90
6146;DHT22;3104;50.348;7.620;2022-08-21T01:42:05;16.50;99.90
6146;DHT22;3104;50.348;7.620;2022-08-21T01:44:31;16.50;99.90
6146;DHT22;3104;50.348;7.620;2022-08-21T01:46:59;16.40;99.90
6146;DHT22;3104;50.348;7.620;2022-08-21T01:49:26;16.30;99.90
6146;DHT22;3104;50.348;7.620;2022-08-21T01:51:51;16.20;99.90
6146;DHT22;3104;50.348;7.620;2022-08-21T01:54:17;16.10;99.90
6146;DHT22;3104;50.348;7.620;2022-08-21T01:56:46;16.10;99.90
6146;DHT22;3104;50.348;7.620;2022-08-21T01:59:13;16.10;99.90
6146;DHT22;3104;50.348;7.620;2022-08-21T02:01:39;16.00;99.90
6146;DHT22;3104;50.348;7.620;2022-08-21T02:04:06;15.90;99.90
6146;DHT22;3104;50.348;7.620;2022-08-21T02:06:32;15.90;99.90
6146;DHT22;3104;50.348;7.620;2022-08-21T02:08:57;15.90;99.90
6146;DHT22;3104;50.348;7.620;2022-08-21T02:11:23;15.90;99.90
6146;DHT22;3104;50.348;7.620;2022-08-21T02:13:49;15.90;99.90
6146;DHT22;3104;50.348;7.620;2022-08-21T02:16:15;15.90;99.90
6146;DHT22;3104;50.348;7.620;2022-08-21T02:18:41;15.90;99.90
6146;DHT22;3104;50.348;7.620;2022-08-21T02:21:06;15.80;99.90
6146;DHT22;3104;50.348;7.620;2022-08-21T02:23:32;15.70;99.90
6146;DHT22;3104;50.348;7.620;2022-08-21T02:25:59;15.70;99.90
6146;DHT22;3104;50.348;7.620;2022-08-21T02:28:25;15.80;99.90
6146;DHT22;3104;50.348;7.620;2022-08-21T02:30:52;15.70;99.90
6146;DHT22;3104;50.348;7.620;2022-08-21T02:33:18;15.60;99.90
6146;DHT22;3104;50.348;7.620;2022-08-21T02:35:45;15.50;99.90
6146;DHT22;3104;50.348;7.620;2022-08-21T02:38:15;15.50;99.90
6146;DHT22;3104;50.348;7.620;2022-08-21T02:40:43;15.50;99.90
6146;DHT22;3104;50.348;7.620;2022-08-21T02:43:10;15.50;99.90
6146;DHT22;3104;50.348;7.620;2022-08-21T02:45:37;15.50;99.90
6146;DHT22;3104;50.348;7.620;2022-08-21T02:48:08;15.50;99.90
6146;DHT22;3104;50.348;7.620;2022-08-21T02:50:37;15.40;99.90
6146;DHT22;3104;50.348;7.620;2022-08-21T02:53:05;15.30;99.90
6146;DHT22;3104;50.348;7.620;2022-08-21T02:55:32;15.30;99.90
6146;DHT22;3104;50.348;7.620;2022-08-21T02:57:59;15.10;99.90
6146;DHT22;3104;50.348;7.620;2022-08-21T03:00:27;15.10;99.90
6146;DHT22;3104;50.348;7.620;2022-08-21T03:02:54;15.10;99.90
6146;DHT22;3104;50.348;7.620;2022-08-21T03:05:21;15.00;99.90
6146;DHT22;3104;50.348;7.620;2022-08-21T03:07:47;15.00;99.90
6146;DHT22;3104;50.348;7.620;2022-08-21T03:10:13;14.90;99.90
6146;DHT22;3104;50.348;7.620;2022-08-21T03:12:39;14.90;99.90
6146;DHT22;3104;50.348;7.620;2022-08-21T03:15:13;14.90;99.90
6146;DHT22;3104;50.348;7.620;2022-08-21T03:17:38;14.80;99.90
6146;DHT22;3104;50.348;7.620;2022-08-21T03:20:06;14.90;99.90
6146;DHT22;3104;50.348;7.620;2022-08-21T03:22:32;14.90;99.90
6146;DHT22;3104;50.348;7.620;2022-08-21T03:24:58;15.00;99.90
6146;DHT22;3104;50.348;7.620;2022-08-21T03:27:25;15.30;99.90
6146;DHT22;3104;50.348;7.620;2022-08-21T03:29:52;15.30;99.90
6146;DHT22;3104;50.348;7.620;2022-08-21T03:32:18;15.30;99.90
6146;DHT22;3104;50.348;7.620;2022-08-21T03:34:45;15.10;99.90
6146;DHT22;3104;50.348;7.620;2022-08-21T03:37:11;15.00;99.90
6146;DHT22;3104;50.348;7.620;2022-08-21T03:39:37;15.00;99.90
6146;DHT22;3104;50.348;7.620;2022-08-21T03:42:02;14.90;99.90
6146;DHT22;3104;50.348;7.620;2022-08-21T03:44:28;14.80;99.90
6146;DHT22;3104;50.348;7.620;2022-08-21T03:46:55;14.70;99.90
6146;DHT22;3104;50.348;7.620;2022-08-21T03:49:21;14.80;99.90
6146;DHT22;3104;50.348;7.620;2022-08-21T03:51:47;14.80;99.90
6146;DHT22;3104;50.348;7.620;2022-08-21T03:54:12;14.60;99.90
6146;DHT22;3104;50.348;7.620;2022-08-21T03:56:38;14.60;99.90
6146;DHT22;3104;50.348;7.620;2022-08-21T03:59:05;14.60;99.90
6146;DHT22;3104;50.348;7.620;2022-08-21T04:01:30;14.70;99.90
6146;DHT22;3104;50.348;7.620;2022-08-21T04:03:56;14.60;99.90
6146;DHT22;3104;50.348;7.620;2022-08-21T04:06:21;14.60;99.90
6146;DHT22;3104;50.348;7.620;2022-08-21T04:08:47;14.60;99.90
6146;DHT22;3104;50.348;7.620;2022-08-21T04:11:13;14.60;99.90
6146;DHT22;3104;50.348;7.620;2022-08-21T04:13:40;14.60;99.90
6146;DHT22;3104;50.348;7.620;2022-08-21T04:16:06;14.60;99.90
6146;DHT22;3104;50.348;7.620;2022-08-21T04:18:32;14.60;99.90
6146;DHT22;3104;50.348;7.620;2022-08-21T04:20:59;14.70;99.90
6146;DHT22;3104;50.348;7.620;2022-08-21T04:23:26;14.50;99.90
6146;DHT22;3104;50.348;7.620;2022-08-21T04:25:53;14.50;99.90
6146;DHT22;3104;50.348;7.620;2022-08-21T04:28:20;14.50;99.90
6146;DHT22;3104;50.348;7.620;2022-08-21T04:30:45;14.50;99.90
6146;DHT22;3104;50.348;7.620;2022-08-21T04:33:11;14.40;99.90
6146;DHT22;3104;50.348;7.620;2022-08-21T04:35:37;14.50;99.90
6146;DHT22;3104;50.348;7.620;2022-08-21T04:38:02;14.50;99.90
6146;DHT22;3104;50.348;7.620;2022-08-21T04:40:29;14.40;99.90
6146;DHT22;3104;50.348;7.620;2022-08-21T04:42:57;14.40;99.90
6146;DHT22;3104;50.348;7.620;2022-08-21T04:45:32;14.40;99.90
6146;DHT22;3104;50.348;7.620;2022-08-21T04:48:00;14.40;99.90
6146;DHT22;3104;50.348;7.620;2022-08-21T04:50:39;14.40;99.90
6146;DHT22;3104;50.348;7.620;2022-08-21T04:53:09;14.40;99.90
6146;DHT22;3104;50.348;7.620;2022-08-21T04:55:35;14.30;99.90
6146;DHT22;3104;50.348;7.620;2022-08-21T04:58:06;14.30;99.90
6146;DHT22;3104;50.348;7.620;2022-08-21T05:00:32;14.30;99.90
6146;DHT22;3104;50.348;7.620;2022-08-21T05:03:00;14.30;99.90
6146;DHT22;3104;50.348;7.620;2022-08-21T05:05:29;14.30;99.90
6146;DHT22;3104;50.348;7.620;2022-08-21T05:07:57;14.40;99.90
6146;DHT22;3104;50.348;7.620;2022-08-21T05:10:24;14.40;99.90
6146;DHT22;3104;50.348;7.620;2022-08-21T05:12:50;14.40;99.90
6146;DHT22;3104;50.348;7.620;2022-08-21T05:15:15;14.50;99.90
6146;DHT22;3104;50.348;7.620;2022-08-21T05:17:42;14.50;99.90
6146;DHT22;3104;50.348;7.620;2022-08-21T05:20:09;14.60;99.90
6146;DHT22;3104;50.348;7.620;2022-08-21T05:22:35;14.60;99.90
6146;DHT22;3104;50.348;7.620;2022-08-21T05:25:01;14.60;99.90
6146;DHT22;3104;50.348;7.620;2022-08-21T05:27:27;14.60;99.90
6146;DHT22;3104;50.348;7.620;2022-08-21T05:29:55;14.50;99.90
6146;DHT22;3104;50.348;7.620;2022-08-21T05:32:21;14.70;99.90
6146;DHT22;3104;50.348;7.620;2022-08-21T05:34:47;14.70;99.90
6146;DHT22;3104;50.348;7.620;2022-08-21T05:37:12;14.80;99.90
6146;DHT22;3104;50.348;7.620;2022-08-21T05:39:38;14.80;99.90
6146;DHT22;3104;50.348;7.620;2022-08-21T05:42:04;14.90;99.90
6146;DHT22;3104;50.348;7.620;2022-08-21T05:44:30;15.00;99.90
6146;DHT22;3104;50.348;7.620;2022-08-21T05:47:08;15.00;99.90
6146;DHT22;3104;50.348;7.620;2022-08-21T05:49:35;15.00;99.90
6146;DHT22;3104;50.348;7.620;2022-08-21T05:52:01;15.00;99.90
6146;DHT22;3104;50.348;7.620;2022-08-21T05:54:27;15.10;99.90
6146;DHT22;3104;50.348;7.620;2022-08-21T05:56:53;15.10;99.90
6146;DHT22;3104;50.348;7.620;2022-08-21T05:59:19;15.20;99.90
6146;DHT22;3104;50.348;7.620;2022-08-21T06:01:44;15.30;99.90
6146;DHT22;3104;50.348;7.620;2022-08-21T06:04:11;15.40;99.90
6146;DHT22;3104;50.348;7.620;2022-08-21T06:06:37;15.40;99.90
6146;DHT22;3104;50.348;7.620;2022-08-21T06:09:03;15.50;99.90
6146;DHT22;3104;50.348;7.620;2022-08-21T06:11:30;15.50;99.90
6146;DHT22;3104;50.348;7.620;2022-08-21T06:13:57;15.70;99.90
6146;DHT22;3104;50.348;7.620;2022-08-21T06:16:23;15.70;99.90
6146;DHT22;3104;50.348;7.620;2022-08-21T06:18:49;15.60;99.90
6146;DHT22;3104;50.348;7.620;2022-08-21T06:21:15;15.70;99.90
6146;DHT22;3104;50.348;7.620;2022-08-21T06:23:41;15.80;99.90
6146;DHT22;3104;50.348;7.620;2022-08-21T06:26:08;15.80;99.90
6146;DHT22;3104;50.348;7.620;2022-08-21T06:28:35;15.90;99.90
6146;DHT22;3104;50.348;7.620;2022-08-21T06:31:01;16.00;99.90
6146;DHT22;3104;50.348;7.620;2022-08-21T06:33:26;16.00;99.90
6146;DHT22;3104;50.348;7.620;2022-08-21T06:35:52;16.10;99.90
6146;DHT22;3104;50.348;7.620;2022-08-21T06:38:18;16.00;99.90
6146;DHT22;3104;50.348;7.620;2022-08-21T06:40:44;16.10;99.90
6146;DHT22;3104;50.348;7.620;2022-08-21T06:43:15;16.10;99.90
6146;DHT22;3104;50.348;7.620;2022-08-21T06:45:41;16.20;99.90
6146;DHT22;3104;50.348;7.620;2022-08-21T06:48:07;16.30;99.90
6146;DHT22;3104;50.348;7.620;2022-08-21T06:50:33;16.40;99.90
6146;DHT22;3104;50.348;7.620;2022-08-21T06:53:08;16.40;99.90
6146;DHT22;3104;50.348;7.620;2022-08-21T06:55:35;16.60;99.90
6146;DHT22;3104;50.348;7.620;2022-08-21T06:58:03;16.60;99.90
6146;DHT22;3104;50.348;7.620;2022-08-21T07:00:29;16.70;99.90
6146;DHT22;3104;50.348;7.620;2022-08-21T07:02:55;16.80;99.90
6146;DHT22;3104;50.348;7.620;2022-08-21T07:05:22;16.80;99.90
6146;DHT22;3104;50.348;7.620;2022-08-21T07:07:47;16.90;99.90
6146;DHT22;3104;50.348;7.620;2022-08-21T07:10:14;17.00;99.90
6146;DHT22;3104;50.348;7.620;2022-08-21T07:12:40;17.00;99.90
6146;DHT22;3104;50.348;7.620;2022-08-21T07:15:07;17.10;99.90
6146;DHT22;3104;50.348;7.620;2022-08-21T07:17:32;17.20;99.90
6146;DHT22;3104;50.348;7.620;2022-08-21T07:19:58;17.20;99.90
6146;DHT22;3104;50.348;7.620;2022-08-21T07:22:24;17.30;99.90
6146;DHT22;3104;50.348;7.620;2022-08-21T07:24:49;17.30;99.90
6146;DHT22;3104;50.348;7.620;2022-08-21T07:27:16;17.40;99.90
6146;DHT22;3104;50.348;7.620;2022-08-21T07:29:42;17.50;99.90
6146;DHT22;3104;50.348;7.620;2022-08-21T07:32:07;17.50;99.90
6146;DHT22;3104;50.348;7.620;2022-08-21T07:34:33;17.50;99.90
6146;DHT22;3104;50.348;7.620;2022-08-21T07:36:59;17.70;99.90
6146;DHT22;3104;50.348;7.620;2022-08-21T07:39:24;17.80;99.90
6146;DHT22;3104;50.348;7.620;2022-08-21T07:41:50;17.80;99.90
6146;DHT22;3104;50.348;7.620;2022-08-21T07:44:16;17.90;99.90
6146;DHT22;3104;50.348;7.620;2022-08-21T07:46:41;18.00;99.90
6146;DHT22;3104;50.348;7.620;2022-08-21T07:49:07;18.10;99.90
6146;DHT22;3104;50.348;7.620;2022-08-21T07:51:33;18.20;99.90
6146;DHT22;3104;50.348;7.620;2022-08-21T07:53:59;18.30;99.90
6146;DHT22;3104;50.348;7.620;2022-08-21T07:56:27;18.40;99.90
6146;DHT22;3104;50.348;7.620;2022-08-21T07:58:53;18.50;99.90
6146;DHT22;3104;50.348;7.620;2022-08-21T08:01:19;18.50;99.90
6146;DHT22;3104;50.348;7.620;2022-08-21T08:03:46;18.60;99.90
6146;DHT22;3104;50.348;7.620;2022-08-21T08:06:12;18.80;99.90
6146;DHT22;3104;50.348;7.620;2022-08-21T08:08:42;19.00;99.90
6146;DHT22;3104;50.348;7.620;2022-08-21T08:11:09;19.00;99.90
6146;DHT22;3104;50.348;7.620;2022-08-21T08:13:45;19.10;99.90
6146;DHT22;3104;50.348;7.620;2022-08-21T08:16:11;19.10;99.90
6146;DHT22;3104;50.348;7.620;2022-08-21T08:18:37;19.20;99.90
6146;DHT22;3104;50.348;7.620;2022-08-21T08:21:03;19.20;99.90
6146;DHT22;3104;50.348;7.620;2022-08-21T08:23:30;19.20;99.90
6146;DHT22;3104;50.348;7.620;2022-08-21T08:25:56;19.50;99.90
6146;DHT22;3104;50.348;7.620;2022-08-21T08:28:22;19.60;99.90
6146;DHT22;3104;50.348;7.620;2022-08-21T08:30:47;19.70;99.90
6146;DHT22;3104;50.348;7.620;2022-08-21T08:33:14;20.20;99.90
6146;DHT22;3104;50.348;7.620;2022-08-21T08:35:42;20.60;99.90
6146;DHT22;3104;50.348;7.620;2022-08-21T08:38:09;21.10;99.90
6146;DHT22;3104;50.348;7.620;2022-08-21T08:41:06;21.50;99.90
6146;DHT22;3104;50.348;7.620;2022-08-21T08:43:33;21.80;99.90
6146;DHT22;3104;50.348;7.620;2022-08-21T08:46:03;22.40;99.90
6146;DHT22;3104;50.348;7.620;2022-08-21T08:54:29;23.00;99.90
6146;DHT22;3104;50.348;7.620;2022-08-21T08:57:01;23.50;99.90
6146;DHT22;3104;50.348;7.620;2022-08-21T08:59:42;23.80;99.90
6146;DHT22;3104;50.348;7.620;2022-08-21T09:02:11;24.00;99.90
6146;DHT22;3104;50.348;7.620;2022-08-21T09:04:37;24.10;99.90
6146;DHT22;3104;50.348;7.620;2022-08-21T09:07:36;24.70;99.90
6146;DHT22;3104;50.348;7.620;2022-08-21T09:10:19;25.00;99.90
6146;DHT22;3104;50.348;7.620;2022-08-21T09:13:04;25.40;99.30
6146;DHT22;3104;50.348;7.620;2022-08-21T09:18:33;25.90;97.90
6146;DHT22;3104;50.348;7.620;2022-08-21T09:21:08;25.40;97.00
6146;DHT22;3104;50.348;7.620;2022-08-21T09:26:20;26.00;95.60
6146;DHT22;3104;50.348;7.620;2022-08-21T09:28:53;26.20;95.10
6146;DHT22;3104;50.348;7.620;2022-08-21T09:31:29;25.90;94.70
6146;DHT22;3104;50.348;7.620;2022-08-21T09:34:00;25.40;94.90
6146;DHT22;3104;50.348;7.620;2022-08-21T09:36:39;24.90;95.80
6146;DHT22;3104;50.348;7.620;2022-08-21T09:39:06;25.20;95.00
6146;DHT22;3104;50.348;7.620;2022-08-21T09:41:34;25.90;93.80
6146;DHT22;3104;50.348;7.620;2022-08-21T09:44:05;25.80;94.50
6146;DHT22;3104;50.348;7.620;2022-08-21T09:46:32;26.20;93.90
6146;DHT22;3104;50.348;7.620;2022-08-21T09:49:00;26.90;92.70
6146;DHT22;3104;50.348;7.620;2022-08-21T09:51:29;26.50;92.80
6146;DHT22;3104;50.348;7.620;2022-08-21T09:56:40;26.90;91.80
6146;DHT22;3104;50.348;7.620;2022-08-21T09:59:35;27.10;91.20
6146;DHT22;3104;50.348;7.620;2022-08-21T10:04:55;28.20;90.20
6146;DHT22;3104;50.348;7.620;2022-08-21T10:07:23;28.30;89.40
6146;DHT22;3104;50.348;7.620;2022-08-21T10:10:23;27.80;89.40
6146;DHT22;3104;50.348;7.620;2022-08-21T10:18:38;26.70;89.00
6146;DHT22;3104;50.348;7.620;2022-08-21T10:21:07;27.30;82.40
6146;DHT22;3104;50.348;7.620;2022-08-21T10:23:56;27.60;84.10
6146;DHT22;3104;50.348;7.620;2022-08-21T10:45:11;28.10;78.70
6146;DHT22;3104;50.348;7.620;2022-08-21T10:47:53;28.20;80.20
6146;DHT22;3104;50.348;7.620;2022-08-21T10:53:11;28.30;81.30
6146;DHT22;3104;50.348;7.620;2022-08-21T10:55:55;28.40;82.90
6146;DHT22;3104;50.348;7.620;2022-08-21T11:03:45;29.20;77.90
6146;DHT22;3104;50.348;7.620;2022-08-21T11:06:25;29.40;77.60
6146;DHT22;3104;50.348;7.620;2022-08-21T11:09:04;29.80;77.60
6146;DHT22;3104;50.348;7.620;2022-08-21T11:11:35;29.80;76.60
6146;DHT22;3104;50.348;7.620;2022-08-21T11:16:46;29.10;76.80
6146;DHT22;3104;50.348;7.620;2022-08-21T11:19:22;28.60;78.00
6146;DHT22;3104;50.348;7.620;2022-08-21T11:24:47;29.40;76.00
6146;DHT22;3104;50.348;7.620;2022-08-21T11:27:25;29.50;76.70
6146;DHT22;3104;50.348;7.620;2022-08-21T11:29:57;28.20;75.80
6146;DHT22;3104;50.348;7.620;2022-08-21T11:32:26;28.70;77.20
6146;DHT22;3104;50.348;7.620;2022-08-21T11:41:22;29.20;75.50
6146;DHT22;3104;50.348;7.620;2022-08-21T11:44:20;29.20;74.70
6146;DHT22;3104;50.348;7.620;2022-08-21T11:52:54;28.50;76.30
6146;DHT22;3104;50.348;7.620;2022-08-21T11:58:35;28.30;75.60
6146;DHT22;3104;50.348;7.620;2022-08-21T12:01:08;28.30;75.30
6146;DHT22;3104;50.348;7.620;2022-08-21T12:03:40;28.90;76.70
6146;DHT22;3104;50.348;7.620;2022-08-21T12:06:09;29.00;76.40
6146;DHT22;3104;50.348;7.620;2022-08-21T12:08:37;29.20;75.40
6146;DHT22;3104;50.348;7.620;2022-08-21T12:13:32;28.60;75.10
6146;DHT22;3104;50.348;7.620;2022-08-21T12:16:15;28.40;75.70
6146;DHT22;3104;50.348;7.620;2022-08-21T12:19:06;28.00;76.80
6146;DHT22;3104;50.348;7.620;2022-08-21T12:21:32;27.90;78.00
6146;DHT22;3104;50.348;7.620;2022-08-21T12:24:17;27.90;77.80
6146;DHT22;3104;50.348;7.620;2022-08-21T12:27:01;28.50;76.80
6146;DHT22;3104;50.348;7.620;2022-08-21T12:29:37;28.10;76.30
6146;DHT22;3104;50.348;7.620;2022-08-21T12:35:01;29.00;75.60
6146;DHT22;3104;50.348;7.620;2022-08-21T12:38:12;29.10;75.50
6146;DHT22;3104;50.348;7.620;2022-08-21T12:40:40;30.00;74.10
6146;DHT22;3104;50.348;7.620;2022-08-21T12:43:24;30.10;74.60
6146;DHT22;3104;50.348;7.620;2022-08-21T12:45:51;30.50;72.40
6146;DHT22;3104;50.348;7.620;2022-08-21T12:48:41;29.30;72.40
6146;DHT22;3104;50.348;7.620;2022-08-21T12:51:13;30.00;73.30
6146;DHT22;3104;50.348;7.620;2022-08-21T12:56:16;29.80;71.80
6146;DHT22;3104;50.348;7.620;2022-08-21T12:58:48;29.70;71.60
6146;DHT22;3104;50.348;7.620;2022-08-21T13:01:27;29.60;72.80
6146;DHT22;3104;50.348;7.620;2022-08-21T13:04:02;29.60;71.30
6146;DHT22;3104;50.348;7.620;2022-08-21T13:06:32;30.00;71.80
6146;DHT22;3104;50.348;7.620;2022-08-21T13:09:05;30.50;70.70
6146;DHT22;3104;50.348;7.620;2022-08-21T13:11:32;30.50;69.00
6146;DHT22;3104;50.348;7.620;2022-08-21T13:13:57;30.20;69.80
6146;DHT22;3104;50.348;7.620;2022-08-21T13:16:28;30.10;68.90
6146;DHT22;3104;50.348;7.620;2022-08-21T13:18:58;29.40;69.10
6146;DHT22;3104;50.348;7.620;2022-08-21T13:21:51;29.70;70.30
6146;DHT22;3104;50.348;7.620;2022-08-21T13:24:21;29.30;68.90
6146;DHT22;3104;50.348;7.620;2022-08-21T13:26:48;29.10;69.40
6146;DHT22;3104;50.348;7.620;2022-08-21T13:29:17;28.60;70.00
6146;DHT22;3104;50.348;7.620;2022-08-21T13:31:49;28.90;70.60
6146;DHT22;3104;50.348;7.620;2022-08-21T13:34:18;29.40;68.00
6146;DHT22;3104;50.348;7.620;2022-08-21T13:36:45;30.10;66.90
6146;DHT22;3104;50.348;7.620;2022-08-21T13:39:16;30.50;68.00
6146;DHT22;3104;50.348;7.620;2022-08-21T13:41:47;30.00;66.00
6146;DHT22;3104;50.348;7.620;2022-08-21T13:44:18;29.60;66.80
6146;DHT22;3104;50.348;7.620;2022-08-21T13:46:45;29.00;67.00
6146;DHT22;3104;50.348;7.620;2022-08-21T13:49:14;29.40;68.20
6146;DHT22;3104;50.348;7.620;2022-08-21T13:51:40;29.40;67.30
6146;DHT22;3104;50.348;7.620;2022-08-21T13:56:49;29.80;66.20
6146;DHT22;3104;50.348;7.620;2022-08-21T13:59:31;29.80;65.70
6146;DHT22;3104;50.348;7.620;2022-08-21T14:02:12;29.70;65.60
6146;DHT22;3104;50.348;7.620;2022-08-21T14:07:36;30.00;65.60
6146;DHT22;3104;50.348;7.620;2022-08-21T14:10:26;29.90;64.50
6146;DHT22;3104;50.348;7.620;2022-08-21T14:13:01;29.70;64.90
6146;DHT22;3104;50.348;7.620;2022-08-21T14:15:31;30.10;65.20
6146;DHT22;3104;50.348;7.620;2022-08-21T14:18:17;29.70;63.60
6146;DHT22;3104;50.348;7.620;2022-08-21T14:20:44;30.20;64.80
6146;DHT22;3104;50.348;7.620;2022-08-21T14:23:10;29.70;63.40
6146;DHT22;3104;50.348;7.620;2022-08-21T14:25:43;30.10;64.90
6146;DHT22;3104;50.348;7.620;2022-08-21T14:28:32;30.40;63.30
6146;DHT22;3104;50.348;7.620;2022-08-21T14:30:59;29.70;63.90
6146;DHT22;3104;50.348;7.620;2022-08-21T14:33:35;29.50;63.00
6146;DHT22;3104;50.348;7.620;2022-08-21T14:36:01;29.80;63.70
6146;DHT22;3104;50.348;7.620;2022-08-21T14:38:28;29.90;63.50
6146;DHT22;3104;50.348;7.620;2022-08-21T14:40:59;29.90;63.20
6146;DHT22;3104;50.348;7.620;2022-08-21T14:43:27;29.10;63.80
6146;DHT22;3104;50.348;7.620;2022-08-21T14:45:54;28.90;64.70
6146;DHT22;3104;50.348;7.620;2022-08-21T14:48:19;28.90;64.80
6146;DHT22;3104;50.348;7.620;2022-08-21T14:50:45;28.90;64.40
6146;DHT22;3104;50.348;7.620;2022-08-21T14:53:11;29.10;64.50
6146;DHT22;3104;50.348;7.620;2022-08-21T14:55:38;29.40;64.80
6146;DHT22;3104;50.348;7.620;2022-08-21T14:58:23;29.60;64.20
6146;DHT22;3104;50.348;7.620;2022-08-21T15:00:50;29.60;63.30
6146;DHT22;3104;50.348;7.620;2022-08-21T15:03:18;29.70;63.60
6146;DHT22;3104;50.348;7.620;2022-08-21T15:05:44;29.10;63.90
6146;DHT22;3104;50.348;7.620;2022-08-21T15:08:10;29.30;63.80
6146;DHT22;3104;50.348;7.620;2022-08-21T15:10:36;29.60;64.00
6146;DHT22;3104;50.348;7.620;2022-08-21T15:13:02;29.70;63.10
6146;DHT22;3104;50.348;7.620;2022-08-21T15:15:35;29.70;63.30
6146;DHT22;3104;50.348;7.620;2022-08-21T15:18:03;29.60;64.00
6146;DHT22;3104;50.348;7.620;2022-08-21T15:20:29;30.10;64.50
6146;DHT22;3104;50.348;7.620;2022-08-21T15:22:55;29.90;63.40
6146;DHT22;3104;50.348;7.620;2022-08-21T15:25:21;29.50;63.20
6146;DHT22;3104;50.348;7.620;2022-08-21T15:27:46;29.20;63.90
6146;DHT22;3104;50.348;7.620;2022-08-21T15:30:12;29.10;63.30
6146;DHT22;3104;50.348;7.620;2022-08-21T15:32:38;29.10;63.90
6146;DHT22;3104;50.348;7.620;2022-08-21T15:35:04;28.90;63.30
6146;DHT22;3104;50.348;7.620;2022-08-21T15:37:30;29.40;64.20
6146;DHT22;3104;50.348;7.620;2022-08-21T15:39:56;29.30;62.50
6146;DHT22;3104;50.348;7.620;2022-08-21T15:42:23;29.40;62.80
6146;DHT22;3104;50.348;7.620;2022-08-21T15:44:49;29.10;62.60
6146;DHT22;3104;50.348;7.620;2022-08-21T15:47:18;29.30;63.50
6146;DHT22;3104;50.348;7.620;2022-08-21T15:49:44;29.20;62.10
6146;DHT22;3104;50.348;7.620;2022-08-21T15:52:18;28.70;63.70
6146;DHT22;3104;50.348;7.620;2022-08-21T15:54:44;28.70;63.90
6146;DHT22;3104;50.348;7.620;2022-08-21T15:57:15;29.20;64.00
6146;DHT22;3104;50.348;7.620;2022-08-21T15:59:44;29.10;63.90
6146;DHT22;3104;50.348;7.620;2022-08-21T16:02:14;29.10;63.80
6146;DHT22;3104;50.348;7.620;2022-08-21T16:04:40;29.00;63.00
6146;DHT22;3104;50.348;7.620;2022-08-21T16:07:06;28.60;62.60
6146;DHT22;3104;50.348;7.620;2022-08-21T16:09:32;28.60;63.70
6146;DHT22;3104;50.348;7.620;2022-08-21T16:11:59;28.60;63.60
6146;DHT22;3104;50.348;7.620;2022-08-21T16:14:26;28.80;64.00
6146;DHT22;3104;50.348;7.620;2022-08-21T16:16:53;28.80;63.20
6146;DHT22;3104;50.348;7.620;2022-08-21T16:19:19;28.60;63.40
6146;DHT22;3104;50.348;7.620;2022-08-21T16:21:46;28.40;63.40
6146;DHT22;3104;50.348;7.620;2022-08-21T16:24:12;28.30;62.80
6146;DHT22;3104;50.348;7.620;2022-08-21T16:26:37;28.80;64.10
6146;DHT22;3104;50.348;7.620;2022-08-21T16:29:04;28.70;63.50
6146;DHT22;3104;50.348;7.620;2022-08-21T16:31:31;28.70;64.40
6146;DHT22;3104;50.348;7.620;2022-08-21T16:33:57;28.40;63.70
6146;DHT22;3104;50.348;7.620;2022-08-21T16:36:24;27.90;63.80
6146;DHT22;3104;50.348;7.620;2022-08-21T16:38:54;27.90;64.70
6146;DHT22;3104;50.348;7.620;2022-08-21T16:41:21;27.90;64.90
6146;DHT22;3104;50.348;7.620;2022-08-21T16:43:49;27.80;64.20
6146;DHT22;3104;50.348;7.620;2022-08-21T16:46:15;27.50;65.30
6146;DHT22;3104;50.348;7.620;2022-08-21T16:48:42;27.40;65.90
6146;DHT22;3104;50.348;7.620;2022-08-21T16:51:13;27.40;66.80
6146;DHT22;3104;50.348;7.620;2022-08-21T16:53:39;27.50;66.50
6146;DHT22;3104;50.348;7.620;2022-08-21T16:56:05;27.20;66.70
6146;DHT22;3104;50.348;7.620;2022-08-21T16:58:36;27.10;67.00
6146;DHT22;3104;50.348;7.620;2022-08-21T17:01:06;27.10;67.40
6146;DHT22;3104;50.348;7.620;2022-08-21T17:03:37;27.10;67.40
6146;DHT22;3104;50.348;7.620;2022-08-21T17:06:04;27.00;67.90
6146;DHT22;3104;50.348;7.620;2022-08-21T17:08:30;26.90;68.40
6146;DHT22;3104;50.348;7.620;2022-08-21T17:10:56;26.70;68.50
6146;DHT22;3104;50.348;7.620;2022-08-21T17:13:23;26.80;69.10
6146;DHT22;3104;50.348;7.620;2022-08-21T17:15:49;26.60;69.70
6146;DHT22;3104;50.348;7.620;2022-08-21T17:18:17;26.60;69.60
6146;DHT22;3104;50.348;7.620;2022-08-21T17:20:43;26.60;69.90
6146;DHT22;3104;50.348;7.620;2022-08-21T17:23:09;26.60;70.50
6146;DHT22;3104;50.348;7.620;2022-08-21T17:25:37;26.60;70.60
6146;DHT22;3104;50.348;7.620;2022-08-21T17:28:07;26.50;70.80
6146;DHT22;3104;50.348;7.620;2022-08-21T17:30:33;26.50;70.60
6146;DHT22;3104;50.348;7.620;2022-08-21T17:33:00;26.50;71.30
6146;DHT22;3104;50.348;7.620;2022-08-21T17:35:26;26.50;71.10
6146;DHT22;3104;50.348;7.620;2022-08-21T17:37:51;26.30;70.60